BAW8L EGPH-EGLL
Flight info
| Callsign | BAW8L |
|---|---|
| Flight time | 1h 15m |
| Altitude | 33000 |
| Route | GOSAM P600 FENIK L612 NAVSO DCT AKOMU DCT VAMEB DCT NUGRA |
| Aircraft | A319/M-SDE3FGHIRWY/LB1 |
Departure
| Time | 2026-05-05 20:49 |
|---|---|
| Airport | Edinburgh Airport (EGPH) |
Arrival
| Time | 2026-05-05 22:04 |
|---|---|
| Airport | London Heathrow Airport (EGLL) |
| Time | Latitude | Longitude | Altitude | Speed | Heading |
|---|---|---|---|---|---|
| 2026-05-05 20:30 | 55.94881 | -3.36548 | 116 ft | 0 kts | 149° |
| 2026-05-05 20:36 | 55.94894 | -3.36563 | 112 ft | 4 kts | 148° |
| 2026-05-05 20:37 | 55.94913 | -3.36583 | 115 ft | 4 kts | 154° |
| 2026-05-05 20:37 | 55.94937 | -3.36592 | 113 ft | 4 kts | 198° |
| 2026-05-05 20:37 | 55.94955 | -3.36570 | 112 ft | 1 kts | 238° |
| 2026-05-05 20:37 | 55.94956 | -3.36569 | 112 ft | 0 kts | 238° |
| 2026-05-05 20:42 | 55.94948 | -3.36591 | 115 ft | 6 kts | 239° |
| 2026-05-05 20:43 | 55.94916 | -3.36687 | 113 ft | 11 kts | 238° |
| 2026-05-05 20:43 | 55.94912 | -3.36815 | 113 ft | 12 kts | 310° |
| 2026-05-05 20:43 | 55.94904 | -3.36958 | 115 ft | 14 kts | 240° |
| 2026-05-05 20:43 | 55.94861 | -3.37086 | 115 ft | 13 kts | 238° |
| 2026-05-05 20:44 | 55.94788 | -3.37304 | 114 ft | 23 kts | 239° |
| 2026-05-05 20:44 | 55.94711 | -3.37531 | 115 ft | 21 kts | 239° |
| 2026-05-05 20:44 | 55.94642 | -3.37735 | 114 ft | 20 kts | 239° |
| 2026-05-05 20:44 | 55.94570 | -3.37945 | 116 ft | 19 kts | 239° |
| 2026-05-05 20:45 | 55.94438 | -3.38332 | 114 ft | 20 kts | 237° |
| 2026-05-05 20:45 | 55.94371 | -3.38532 | 114 ft | 15 kts | 239° |
| 2026-05-05 20:45 | 55.94316 | -3.38696 | 113 ft | 16 kts | 239° |
| 2026-05-05 20:46 | 55.94286 | -3.38845 | 116 ft | 11 kts | 288° |
| 2026-05-05 20:46 | 55.94318 | -3.38903 | 114 ft | 0 kts | 330° |
| 2026-05-05 20:47 | 55.94345 | -3.38930 | 115 ft | 9 kts | 329° |
| 2026-05-05 20:47 | 55.94413 | -3.38962 | 114 ft | 8 kts | 25° |
| 2026-05-05 20:48 | 55.94428 | -3.38934 | 114 ft | 0 kts | 60° |
| 2026-05-05 20:48 | 55.94429 | -3.38932 | 114 ft | 1 kts | 60° |
| 2026-05-05 20:48 | 55.94461 | -3.38837 | 114 ft | 33 kts | 58° |
| 2026-05-05 20:48 | 55.94753 | -3.37973 | 115 ft | 127 kts | 58° |
| 2026-05-05 20:49 | 55.95297 | -3.36350 | 542 ft | 161 kts | 61° |
| 2026-05-05 20:49 | 55.95866 | -3.34601 | 1477 ft | 164 kts | 60° |
| 2026-05-05 20:49 | 55.96485 | -3.32958 | 2321 ft | 161 kts | 48° |
| 2026-05-05 20:49 | 55.97388 | -3.31536 | 2676 ft | 186 kts | 40° |
| 2026-05-05 20:50 | 55.98470 | -3.29946 | 3062 ft | 215 kts | 40° |
| 2026-05-05 20:50 | 55.99723 | -3.28250 | 3652 ft | 238 kts | 27° |
| 2026-05-05 20:50 | 56.01397 | -3.27796 | 4506 ft | 255 kts | 351° |
| 2026-05-05 20:50 | 56.02971 | -3.29282 | 5564 ft | 264 kts | 315° |
| 2026-05-05 20:51 | 56.03813 | -3.32172 | 6703 ft | 268 kts | 281° |
| 2026-05-05 20:51 | 56.03699 | -3.35526 | 7762 ft | 273 kts | 258° |
| 2026-05-05 20:51 | 56.03135 | -3.38783 | 8797 ft | 277 kts | 252° |
| 2026-05-05 20:51 | 56.02448 | -3.42038 | 9817 ft | 280 kts | 250° |
| 2026-05-05 20:52 | 56.01767 | -3.45263 | 10711 ft | 282 kts | 252° |
| 2026-05-05 20:52 | 56.01312 | -3.48805 | 11106 ft | 300 kts | 273° |
| 2026-05-05 20:52 | 56.01886 | -3.52410 | 11388 ft | 318 kts | 302° |
| 2026-05-05 20:52 | 56.03501 | -3.55160 | 11991 ft | 328 kts | 328° |
| 2026-05-05 20:53 | 56.05443 | -3.57327 | 12733 ft | 332 kts | 320° |
| 2026-05-05 20:53 | 56.06825 | -3.60668 | 13464 ft | 336 kts | 292° |
| 2026-05-05 20:53 | 56.07161 | -3.64746 | 14185 ft | 342 kts | 265° |
| 2026-05-05 20:53 | 56.06380 | -3.68782 | 14864 ft | 351 kts | 239° |
| 2026-05-05 20:54 | 56.04667 | -3.71941 | 15564 ft | 359 kts | 220° |
| 2026-05-05 20:54 | 56.02720 | -3.74745 | 16282 ft | 360 kts | 225° |
| 2026-05-05 20:54 | 56.00920 | -3.77890 | 16960 ft | 362 kts | 229° |
| 2026-05-05 20:54 | 55.99227 | -3.81212 | 17662 ft | 364 kts | 231° |
| 2026-05-05 20:55 | 55.97553 | -3.84629 | 18363 ft | 367 kts | 231° |
| 2026-05-05 20:55 | 55.95863 | -3.88060 | 18974 ft | 370 kts | 231° |
| 2026-05-05 20:55 | 55.94130 | -3.91495 | 19593 ft | 373 kts | 230° |
| 2026-05-05 20:55 | 55.92361 | -3.94908 | 20211 ft | 376 kts | 229° |
| 2026-05-05 20:56 | 55.90565 | -3.98302 | 20807 ft | 379 kts | 229° |
| 2026-05-05 20:56 | 55.88736 | -4.01715 | 21422 ft | 382 kts | 229° |
| 2026-05-05 20:56 | 55.86886 | -4.05147 | 21978 ft | 385 kts | 229° |
| 2026-05-05 20:56 | 55.85015 | -4.08616 | 22538 ft | 388 kts | 229° |
| 2026-05-05 20:57 | 55.83144 | -4.12085 | 23080 ft | 391 kts | 229° |
| 2026-05-05 20:57 | 55.81261 | -4.15581 | 23616 ft | 394 kts | 229° |
| 2026-05-05 20:57 | 55.79320 | -4.19054 | 24066 ft | 398 kts | 224° |
| 2026-05-05 20:57 | 55.77063 | -4.21934 | 24510 ft | 404 kts | 211° |
| 2026-05-05 20:58 | 55.74443 | -4.23855 | 24966 ft | 411 kts | 199° |
| 2026-05-05 20:58 | 55.71620 | -4.24773 | 25419 ft | 418 kts | 187° |
| 2026-05-05 20:58 | 55.68679 | -4.24627 | 25856 ft | 425 kts | 175° |
| 2026-05-05 20:58 | 55.65795 | -4.23317 | 26305 ft | 433 kts | 162° |
| 2026-05-05 20:59 | 55.63084 | -4.20939 | 26737 ft | 439 kts | 154° |
| 2026-05-05 20:59 | 55.60434 | -4.18343 | 27148 ft | 441 kts | 154° |
| 2026-05-05 20:59 | 55.57717 | -4.15676 | 27569 ft | 444 kts | 154° |
| 2026-05-05 20:59 | 55.55012 | -4.13022 | 27979 ft | 446 kts | 154° |
| 2026-05-05 21:00 | 55.52293 | -4.10356 | 28367 ft | 448 kts | 154° |
| 2026-05-05 21:00 | 55.49557 | -4.07681 | 28774 ft | 451 kts | 154° |
| 2026-05-05 21:00 | 55.46835 | -4.05031 | 29144 ft | 453 kts | 154° |
| 2026-05-05 21:00 | 55.44069 | -4.02346 | 29493 ft | 456 kts | 154° |
| 2026-05-05 21:01 | 55.41276 | -3.99641 | 29858 ft | 459 kts | 154° |
| 2026-05-05 21:01 | 55.38481 | -3.96941 | 30206 ft | 461 kts | 154° |
| 2026-05-05 21:01 | 55.35654 | -3.94217 | 30506 ft | 463 kts | 154° |
| 2026-05-05 21:01 | 55.32831 | -3.91498 | 30805 ft | 465 kts | 154° |
| 2026-05-05 21:02 | 55.29995 | -3.88767 | 31210 ft | 464 kts | 154° |
| 2026-05-05 21:02 | 55.27168 | -3.86046 | 31640 ft | 463 kts | 154° |
| 2026-05-05 21:02 | 55.24355 | -3.83342 | 32073 ft | 461 kts | 154° |
| 2026-05-05 21:02 | 55.21533 | -3.80651 | 32513 ft | 459 kts | 155° |
| 2026-05-05 21:03 | 55.18696 | -3.78094 | 32907 ft | 458 kts | 156° |
| 2026-05-05 21:03 | 55.15839 | -3.75653 | 33060 ft | 456 kts | 158° |
| 2026-05-05 21:03 | 55.10155 | -3.70968 | 33096 ft | 450 kts | 158° |
| 2026-05-05 21:04 | 55.04501 | -3.66310 | 33095 ft | 449 kts | 158° |
| 2026-05-05 21:04 | 54.98865 | -3.61584 | 33089 ft | 449 kts | 157° |
| 2026-05-05 21:05 | 54.93285 | -3.56697 | 33092 ft | 451 kts | 154° |
| 2026-05-05 21:05 | 54.88293 | -3.50122 | 33084 ft | 459 kts | 131° |
| 2026-05-05 21:06 | 54.86616 | -3.45476 | 33082 ft | 462 kts | 118° |
| 2026-05-05 21:06 | 54.85190 | -3.40472 | 33077 ft | 462 kts | 118° |
| 2026-05-05 21:06 | 54.82359 | -3.30476 | 33073 ft | 462 kts | 118° |
| 2026-05-05 21:07 | 54.79528 | -3.20484 | 33076 ft | 462 kts | 118° |
| 2026-05-05 21:07 | 54.76368 | -3.10778 | 33070 ft | 457 kts | 133° |
| 2026-05-05 21:08 | 54.74073 | -3.07119 | 33068 ft | 451 kts | 148° |
| 2026-05-05 21:08 | 54.71303 | -3.04571 | 33044 ft | 445 kts | 163° |
| 2026-05-05 21:08 | 54.65373 | -3.01699 | 33062 ft | 442 kts | 168° |
| 2026-05-05 21:09 | 54.59451 | -2.99011 | 33065 ft | 443 kts | 168° |
| 2026-05-05 21:09 | 54.53483 | -2.96422 | 33070 ft | 441 kts | 173° |
| 2026-05-05 21:10 | 54.50474 | -2.95240 | 33231 ft | 442 kts | 173° |
| 2026-05-05 21:10 | 54.47479 | -2.94097 | 33277 ft | 443 kts | 174° |
| 2026-05-05 21:10 | 54.44684 | -2.93175 | 33051 ft | 445 kts | 170° |
| 2026-05-05 21:10 | 54.41689 | -2.91843 | 33052 ft | 444 kts | 166° |
| 2026-05-05 21:11 | 54.35809 | -2.88600 | 33060 ft | 445 kts | 165° |
| 2026-05-05 21:11 | 54.29885 | -2.85523 | 33056 ft | 444 kts | 167° |
| 2026-05-05 21:12 | 54.23907 | -2.82822 | 33070 ft | 444 kts | 168° |
| 2026-05-05 21:12 | 54.17921 | -2.80257 | 33055 ft | 444 kts | 168° |
| 2026-05-05 21:13 | 54.11934 | -2.77655 | 33061 ft | 444 kts | 168° |
| 2026-05-05 21:13 | 54.05957 | -2.74998 | 33064 ft | 444 kts | 168° |
| 2026-05-05 21:14 | 53.99972 | -2.72325 | 33064 ft | 444 kts | 168° |
| 2026-05-05 21:14 | 53.93992 | -2.69661 | 33057 ft | 444 kts | 168° |
| 2026-05-05 21:15 | 53.88008 | -2.67020 | 33058 ft | 444 kts | 168° |
| 2026-05-05 21:15 | 53.82030 | -2.64397 | 33056 ft | 444 kts | 168° |
| 2026-05-05 21:16 | 53.76054 | -2.61789 | 33056 ft | 444 kts | 168° |
| 2026-05-05 21:16 | 53.71078 | -2.59620 | 33047 ft | 444 kts | 168° |
| 2026-05-05 21:17 | 53.65102 | -2.56999 | 33047 ft | 443 kts | 168° |
| 2026-05-05 21:17 | 53.59127 | -2.54406 | 33053 ft | 443 kts | 168° |
| 2026-05-05 21:18 | 53.53167 | -2.51825 | 33056 ft | 443 kts | 168° |
| 2026-05-05 21:18 | 53.47189 | -2.49253 | 33056 ft | 443 kts | 168° |
| 2026-05-05 21:19 | 53.41226 | -2.46679 | 33043 ft | 443 kts | 168° |
| 2026-05-05 21:19 | 53.35250 | -2.44104 | 33043 ft | 442 kts | 168° |
| 2026-05-05 21:20 | 53.29299 | -2.41555 | 33045 ft | 442 kts | 168° |
| 2026-05-05 21:20 | 53.23340 | -2.39016 | 33044 ft | 442 kts | 168° |
| 2026-05-05 21:21 | 53.17369 | -2.36486 | 33033 ft | 443 kts | 168° |
| 2026-05-05 21:21 | 53.11404 | -2.33960 | 33034 ft | 443 kts | 168° |
| 2026-05-05 21:22 | 53.05431 | -2.31402 | 33035 ft | 444 kts | 166° |
| 2026-05-05 21:22 | 52.99852 | -2.27122 | 33028 ft | 448 kts | 149° |
| 2026-05-05 21:23 | 52.94550 | -2.21522 | 33019 ft | 448 kts | 149° |
| 2026-05-05 21:23 | 52.89276 | -2.16008 | 33023 ft | 448 kts | 149° |
| 2026-05-05 21:24 | 52.84048 | -2.10561 | 33031 ft | 448 kts | 149° |
| 2026-05-05 21:24 | 52.78775 | -2.05080 | 33031 ft | 448 kts | 149° |
| 2026-05-05 21:25 | 52.73491 | -1.99592 | 33011 ft | 448 kts | 149° |
| 2026-05-05 21:25 | 52.68189 | -1.94093 | 32006 ft | 455 kts | 149° |
| 2026-05-05 21:26 | 52.65474 | -1.91291 | 30732 ft | 468 kts | 149° |
| 2026-05-05 21:26 | 52.62710 | -1.88446 | 29915 ft | 467 kts | 149° |
| 2026-05-05 21:26 | 52.59958 | -1.85613 | 29219 ft | 461 kts | 149° |
| 2026-05-05 21:26 | 52.57259 | -1.82840 | 28565 ft | 454 kts | 149° |
| 2026-05-05 21:27 | 52.54601 | -1.80115 | 27917 ft | 449 kts | 150° |
| 2026-05-05 21:27 | 52.51972 | -1.77422 | 27255 ft | 444 kts | 150° |
| 2026-05-05 21:27 | 52.49371 | -1.74762 | 26612 ft | 438 kts | 150° |
| 2026-05-05 21:27 | 52.46795 | -1.72133 | 25985 ft | 433 kts | 150° |
| 2026-05-05 21:28 | 52.44250 | -1.69538 | 25361 ft | 429 kts | 150° |
| 2026-05-05 21:28 | 52.41735 | -1.66972 | 24737 ft | 425 kts | 150° |
| 2026-05-05 21:28 | 52.39233 | -1.64418 | 24117 ft | 421 kts | 150° |
| 2026-05-05 21:28 | 52.36755 | -1.61894 | 23499 ft | 418 kts | 150° |
| 2026-05-05 21:29 | 52.34296 | -1.59395 | 22856 ft | 413 kts | 150° |
| 2026-05-05 21:29 | 52.31877 | -1.56943 | 22296 ft | 407 kts | 150° |
| 2026-05-05 21:29 | 52.29486 | -1.54519 | 21741 ft | 402 kts | 150° |
| 2026-05-05 21:29 | 52.27118 | -1.52122 | 21200 ft | 398 kts | 150° |
| 2026-05-05 21:30 | 52.24771 | -1.49754 | 20691 ft | 394 kts | 150° |
| 2026-05-05 21:30 | 52.22460 | -1.47419 | 20206 ft | 391 kts | 149° |
| 2026-05-05 21:30 | 52.20282 | -1.44695 | 20002 ft | 396 kts | 141° |
| 2026-05-05 21:30 | 52.18190 | -1.41760 | 20034 ft | 397 kts | 141° |
| 2026-05-05 21:31 | 52.16092 | -1.38831 | 19738 ft | 396 kts | 141° |
| 2026-05-05 21:31 | 52.13976 | -1.35889 | 18728 ft | 406 kts | 141° |
| 2026-05-05 21:31 | 52.11828 | -1.32905 | 18083 ft | 404 kts | 141° |
| 2026-05-05 21:31 | 52.09718 | -1.29968 | 17686 ft | 394 kts | 141° |
| 2026-05-05 21:32 | 52.07659 | -1.27102 | 17285 ft | 385 kts | 141° |
| 2026-05-05 21:32 | 52.05634 | -1.24289 | 16930 ft | 379 kts | 141° |
| 2026-05-05 21:32 | 52.03676 | -1.21571 | 16786 ft | 362 kts | 141° |
| 2026-05-05 21:32 | 52.01815 | -1.18991 | 16622 ft | 340 kts | 141° |
| 2026-05-05 21:33 | 52.00094 | -1.16613 | 16489 ft | 319 kts | 141° |
| 2026-05-05 21:33 | 51.98435 | -1.14323 | 16347 ft | 301 kts | 141° |
| 2026-05-05 21:33 | 51.96883 | -1.12182 | 16004 ft | 293 kts | 141° |
| 2026-05-05 21:33 | 51.95321 | -1.10025 | 15512 ft | 291 kts | 141° |
| 2026-05-05 21:34 | 51.93786 | -1.07907 | 15026 ft | 289 kts | 141° |
| 2026-05-05 21:34 | 51.92278 | -1.05834 | 14560 ft | 287 kts | 141° |
| 2026-05-05 21:34 | 51.90758 | -1.03749 | 14066 ft | 286 kts | 141° |
| 2026-05-05 21:34 | 51.89240 | -1.01667 | 13596 ft | 284 kts | 140° |
| 2026-05-05 21:35 | 51.87731 | -0.99591 | 13053 ft | 283 kts | 140° |
| 2026-05-05 21:35 | 51.86248 | -0.97538 | 12609 ft | 280 kts | 138° |
| 2026-05-05 21:35 | 51.85013 | -0.95161 | 12232 ft | 275 kts | 121° |
| 2026-05-05 21:35 | 51.84134 | -0.92414 | 11860 ft | 274 kts | 115° |
| 2026-05-05 21:36 | 51.83284 | -0.89653 | 11307 ft | 282 kts | 117° |
| 2026-05-05 21:36 | 51.82398 | -0.86861 | 11116 ft | 276 kts | 115° |
| 2026-05-05 21:36 | 51.81549 | -0.84076 | 10788 ft | 276 kts | 115° |
| 2026-05-05 21:36 | 51.80711 | -0.81310 | 10552 ft | 273 kts | 114° |
| 2026-05-05 21:37 | 51.79877 | -0.78557 | 10294 ft | 271 kts | 115° |
| 2026-05-05 21:37 | 51.79049 | -0.75832 | 9992 ft | 269 kts | 115° |
| 2026-05-05 21:37 | 51.78224 | -0.73140 | 9513 ft | 268 kts | 115° |
| 2026-05-05 21:37 | 51.77397 | -0.70446 | 9183 ft | 266 kts | 115° |
| 2026-05-05 21:38 | 51.76594 | -0.67853 | 9018 ft | 251 kts | 115° |
| 2026-05-05 21:38 | 51.75836 | -0.65409 | 8771 ft | 238 kts | 115° |
| 2026-05-05 21:38 | 51.75101 | -0.63037 | 8367 ft | 234 kts | 115° |
| 2026-05-05 21:38 | 51.74381 | -0.60706 | 7928 ft | 231 kts | 114° |
| 2026-05-05 21:39 | 51.73583 | -0.58474 | 7458 ft | 230 kts | 131° |
| 2026-05-05 21:39 | 51.72274 | -0.57019 | 7092 ft | 233 kts | 161° |
| 2026-05-05 21:39 | 51.70679 | -0.56789 | 6693 ft | 231 kts | 191° |
| 2026-05-05 21:39 | 51.69211 | -0.57728 | 6397 ft | 227 kts | 208° |
| 2026-05-05 21:40 | 51.67809 | -0.58876 | 6107 ft | 225 kts | 207° |
| 2026-05-05 21:40 | 51.66411 | -0.60007 | 5816 ft | 225 kts | 207° |
| 2026-05-05 21:40 | 51.65012 | -0.61134 | 5524 ft | 224 kts | 207° |
| 2026-05-05 21:40 | 51.63622 | -0.62255 | 5240 ft | 223 kts | 207° |
| 2026-05-05 21:41 | 51.62241 | -0.63372 | 4960 ft | 223 kts | 207° |
| 2026-05-05 21:41 | 51.60854 | -0.64492 | 4660 ft | 222 kts | 206° |
| 2026-05-05 21:41 | 51.59510 | -0.65699 | 4321 ft | 221 kts | 216° |
| 2026-05-05 21:41 | 51.58343 | -0.67371 | 3920 ft | 223 kts | 221° |
| 2026-05-05 21:42 | 51.57191 | -0.69012 | 3636 ft | 220 kts | 221° |
| 2026-05-05 21:42 | 51.56063 | -0.70647 | 3352 ft | 217 kts | 226° |
| 2026-05-05 21:42 | 51.55081 | -0.72458 | 3088 ft | 214 kts | 230° |
| 2026-05-05 21:42 | 51.54206 | -0.74310 | 2995 ft | 201 kts | 241° |
| 2026-05-05 21:43 | 51.53532 | -0.76226 | 2995 ft | 195 kts | 230° |
| 2026-05-05 21:43 | 51.52422 | -0.77348 | 3013 ft | 190 kts | 192° |
| 2026-05-05 21:43 | 51.51121 | -0.77524 | 3063 ft | 186 kts | 172° |
| 2026-05-05 21:43 | 51.49872 | -0.77008 | 3013 ft | 184 kts | 153° |
| 2026-05-05 21:44 | 51.48839 | -0.75901 | 3008 ft | 178 kts | 134° |
| 2026-05-05 21:44 | 51.48096 | -0.74353 | 3003 ft | 174 kts | 116° |
| 2026-05-05 21:44 | 51.47695 | -0.72544 | 2970 ft | 166 kts | 98° |
| 2026-05-05 21:44 | 51.47636 | -0.70731 | 2820 ft | 162 kts | 88° |
| 2026-05-05 21:45 | 51.47646 | -0.68969 | 2635 ft | 159 kts | 88° |
| 2026-05-05 21:45 | 51.47657 | -0.67198 | 2427 ft | 158 kts | 88° |
| 2026-05-05 21:45 | 51.47667 | -0.65442 | 2213 ft | 157 kts | 88° |
| 2026-05-05 21:45 | 51.47676 | -0.63701 | 2005 ft | 156 kts | 88° |
| 2026-05-05 21:46 | 51.47685 | -0.62031 | 1802 ft | 141 kts | 89° |
| 2026-05-05 21:46 | 51.47693 | -0.60505 | 1609 ft | 133 kts | 89° |
| 2026-05-05 21:46 | 51.47700 | -0.59037 | 1428 ft | 130 kts | 89° |
| 2026-05-05 21:46 | 51.47707 | -0.57583 | 1250 ft | 130 kts | 89° |
| 2026-05-05 21:47 | 51.47714 | -0.56133 | 1073 ft | 130 kts | 89° |
| 2026-05-05 21:47 | 51.47731 | -0.54694 | 866 ft | 130 kts | 88° |
| 2026-05-05 21:47 | 51.47736 | -0.53245 | 684 ft | 129 kts | 88° |
| 2026-05-05 21:47 | 51.47738 | -0.51805 | 537 ft | 130 kts | 87° |
| 2026-05-05 21:48 | 51.47743 | -0.50362 | 338 ft | 131 kts | 90° |
| 2026-05-05 21:48 | 51.47742 | -0.48915 | 377 ft | 133 kts | 87° |
| 2026-05-05 21:48 | 51.47727 | -0.47417 | 1008 ft | 139 kts | 90° |
| 2026-05-05 21:48 | 51.47729 | -0.45800 | 1569 ft | 149 kts | 88° |
| 2026-05-05 21:49 | 51.47994 | -0.44120 | 1840 ft | 170 kts | 62° |
| 2026-05-05 21:49 | 51.48878 | -0.42616 | 2056 ft | 205 kts | 35° |
| 2026-05-05 21:49 | 51.50125 | -0.41473 | 2285 ft | 208 kts | 35° |
| 2026-05-05 21:49 | 51.51271 | -0.39883 | 2378 ft | 228 kts | 54° |
| 2026-05-05 21:50 | 51.51759 | -0.37608 | 3270 ft | 209 kts | 84° |
| 2026-05-05 21:50 | 51.51811 | -0.35288 | 3792 ft | 206 kts | 88° |
| 2026-05-05 21:50 | 51.51812 | -0.33001 | 3962 ft | 205 kts | 85° |
| 2026-05-05 21:50 | 51.52293 | -0.30907 | 4007 ft | 202 kts | 49° |
| 2026-05-05 21:51 | 51.53442 | -0.29690 | 4013 ft | 201 kts | 20° |
| 2026-05-05 21:51 | 51.54815 | -0.29317 | 4009 ft | 203 kts | 353° |
| 2026-05-05 21:51 | 51.56080 | -0.30305 | 4009 ft | 208 kts | 316° |
| 2026-05-05 21:51 | 51.56792 | -0.32317 | 4008 ft | 212 kts | 284° |
| 2026-05-05 21:52 | 51.56262 | -0.36903 | 3456 ft | 215 kts | 250° |
| 2026-05-05 21:52 | 51.55752 | -0.39147 | 3254 ft | 209 kts | 250° |
| 2026-05-05 21:52 | 51.55269 | -0.41289 | 3124 ft | 200 kts | 250° |
| 2026-05-05 21:53 | 51.54837 | -0.43403 | 3017 ft | 198 kts | 257° |
| 2026-05-05 21:53 | 51.54594 | -0.45539 | 3011 ft | 196 kts | 262° |
| 2026-05-05 21:53 | 51.54508 | -0.47715 | 3011 ft | 195 kts | 272° |
| 2026-05-05 21:53 | 51.54557 | -0.49894 | 3013 ft | 195 kts | 274° |
| 2026-05-05 21:54 | 51.54961 | -0.51920 | 3008 ft | 190 kts | 308° |
| 2026-05-05 21:54 | 51.55827 | -0.53514 | 3013 ft | 189 kts | 317° |
| 2026-05-05 21:54 | 51.56755 | -0.55002 | 3013 ft | 188 kts | 318° |
| 2026-05-05 21:54 | 51.57692 | -0.56478 | 3006 ft | 189 kts | 318° |
| 2026-05-05 21:55 | 51.58631 | -0.57964 | 3012 ft | 189 kts | 318° |
| 2026-05-05 21:55 | 51.59463 | -0.59595 | 2998 ft | 192 kts | 295° |
| 2026-05-05 21:55 | 51.59826 | -0.61668 | 2924 ft | 192 kts | 283° |
| 2026-05-05 21:55 | 51.60065 | -0.63782 | 2625 ft | 193 kts | 281° |
| 2026-05-05 21:56 | 51.60292 | -0.65908 | 2328 ft | 193 kts | 281° |
| 2026-05-05 21:56 | 51.60428 | -0.68048 | 2070 ft | 192 kts | 271° |
| 2026-05-05 21:56 | 51.60412 | -0.70180 | 2065 ft | 191 kts | 269° |
| 2026-05-05 21:56 | 51.60374 | -0.72331 | 2016 ft | 192 kts | 269° |
| 2026-05-05 21:57 | 51.60333 | -0.74479 | 2000 ft | 192 kts | 269° |
| 2026-05-05 21:57 | 51.60206 | -0.76619 | 1999 ft | 193 kts | 252° |
| 2026-05-05 21:57 | 51.59507 | -0.78447 | 2006 ft | 194 kts | 225° |
| 2026-05-05 21:57 | 51.58407 | -0.79661 | 2014 ft | 191 kts | 207° |
| 2026-05-05 21:58 | 51.57239 | -0.80684 | 2023 ft | 191 kts | 206° |
| 2026-05-05 21:58 | 51.56053 | -0.81637 | 2022 ft | 190 kts | 197° |
| 2026-05-05 21:58 | 51.54774 | -0.81773 | 2024 ft | 184 kts | 165° |
| 2026-05-05 21:58 | 51.53630 | -0.80919 | 2026 ft | 182 kts | 146° |
| 2026-05-05 21:59 | 51.52558 | -0.79888 | 2031 ft | 182 kts | 146° |
| 2026-05-05 21:59 | 51.51477 | -0.78850 | 2032 ft | 181 kts | 146° |
| 2026-05-05 21:59 | 51.50386 | -0.77800 | 2026 ft | 181 kts | 146° |
| 2026-05-05 21:59 | 51.49320 | -0.76776 | 2032 ft | 181 kts | 146° |
| 2026-05-05 22:00 | 51.48365 | -0.75497 | 2027 ft | 179 kts | 127° |
| 2026-05-05 22:00 | 51.47783 | -0.73771 | 2030 ft | 176 kts | 106° |
| 2026-05-05 22:00 | 51.47627 | -0.71840 | 2031 ft | 175 kts | 88° |
| 2026-05-05 22:00 | 51.47640 | -0.69878 | 2032 ft | 175 kts | 88° |
| 2026-05-05 22:01 | 51.47653 | -0.67916 | 2035 ft | 176 kts | 88° |
| 2026-05-05 22:01 | 51.47664 | -0.65959 | 2032 ft | 175 kts | 88° |
| 2026-05-05 22:01 | 51.47675 | -0.64005 | 1976 ft | 174 kts | 88° |
| 2026-05-05 22:01 | 51.47685 | -0.62107 | 1800 ft | 166 kts | 89° |
| 2026-05-05 22:02 | 51.47694 | -0.60321 | 1593 ft | 157 kts | 89° |
| 2026-05-05 22:02 | 51.47703 | -0.58573 | 1394 ft | 155 kts | 89° |
| 2026-05-05 22:02 | 51.47711 | -0.56847 | 1184 ft | 155 kts | 89° |
| 2026-05-05 22:02 | 51.47719 | -0.55212 | 971 ft | 140 kts | 88° |
| 2026-05-05 22:03 | 51.47726 | -0.53704 | 769 ft | 133 kts | 88° |
| 2026-05-05 22:03 | 51.47738 | -0.52233 | 594 ft | 131 kts | 88° |
| 2026-05-05 22:03 | 51.47741 | -0.50789 | 402 ft | 128 kts | 87° |
| 2026-05-05 22:03 | 51.47747 | -0.49352 | 237 ft | 127 kts | 87° |
| 2026-05-05 22:04 | 51.47758 | -0.47938 | 106 ft | 126 kts | 86° |
| 2026-05-05 22:04 | 51.47755 | -0.47071 | 89 ft | 105 kts | 86° |
| 2026-05-05 22:04 | 51.47761 | -0.45878 | 84 ft | 59 kts | 89° |
| 2026-05-05 22:04 | 51.47761 | -0.45498 | 85 ft | 45 kts | 90° |
| 2026-05-05 22:05 | 51.47723 | -0.45198 | 88 ft | 20 kts | 150° |
| 2026-05-05 22:05 | 51.47630 | -0.45178 | 86 ft | 9 kts | 184° |
| 2026-05-05 22:05 | 51.47600 | -0.45249 | 86 ft | 9 kts | 277° |
| 2026-05-05 22:05 | 51.47598 | -0.45312 | 86 ft | 2 kts | 266° |
| 2026-05-05 22:06 | 51.47596 | -0.45358 | 86 ft | 6 kts | 266° |
| 2026-05-05 22:06 | 51.47596 | -0.45455 | 89 ft | 12 kts | 270° |
| 2026-05-05 22:06 | 51.47597 | -0.45603 | 86 ft | 15 kts | 270° |
| 2026-05-05 22:06 | 51.47596 | -0.45778 | 89 ft | 17 kts | 269° |
| 2026-05-05 22:07 | 51.47595 | -0.45980 | 86 ft | 19 kts | 269° |
| 2026-05-05 22:07 | 51.47595 | -0.46207 | 86 ft | 21 kts | 269° |
| 2026-05-05 22:07 | 51.47594 | -0.46459 | 90 ft | 24 kts | 269° |
| 2026-05-05 22:07 | 51.47592 | -0.46733 | 86 ft | 26 kts | 270° |
| 2026-05-05 22:08 | 51.47584 | -0.47028 | 88 ft | 28 kts | 269° |
| 2026-05-05 22:08 | 51.47582 | -0.47344 | 86 ft | 30 kts | 269° |
| 2026-05-05 22:08 | 51.47580 | -0.47687 | 86 ft | 32 kts | 270° |
| 2026-05-05 22:08 | 51.47580 | -0.47991 | 89 ft | 17 kts | 270° |
| 2026-05-05 22:09 | 51.47579 | -0.48190 | 90 ft | 19 kts | 270° |
| 2026-05-05 22:09 | 51.47577 | -0.48414 | 89 ft | 21 kts | 257° |
| 2026-05-05 22:09 | 51.47459 | -0.48474 | 86 ft | 14 kts | 178° |
| 2026-05-05 22:09 | 51.47396 | -0.48485 | 86 ft | 6 kts | 220° |
| 2026-05-05 22:10 | 51.47399 | -0.48555 | 88 ft | 7 kts | 272° |
| 2026-05-05 22:10 | 51.47399 | -0.48582 | 87 ft | 0 kts | 270° |